x

Buoy F01 - West Penobscot Bay (44033) Wave Buoy

12:04pm - Fri 17th Nov 2017 All times are EST. -5 hours from GMT.

  • Sig Wave height 2.6ft
  • Peak Period 3s
  • Wind
    25mph, 31mph gusts
  • Sea Temp 50°f
  • Air Temp 42°f
  • Sea Pressure 1004.9mb
  • Buoy F01 - West Penobscot Bay
  • Buoy F01 - West Penobscot Bay

More Historic Weather Station data

Upgrade to MSW Pro to gain access to the past 30 days of data for over 8000 Wavebouys and Weather Stations around the globe.

Join

Comparision Forecast

View Surf forecast
   
Fri 11/17 12:04pm 2.5ft 3s 25 31 mph 1004.9mb 50f 42f
11:04am 2.5ft 3s 25 34 mph 1004.2mb 50f 43f
10:04am 2.5ft 3s 25 31 mph 1004.1mb 50f 42f
9:04am 2.5ft 3s 20 25 mph 1003.8mb 50f 42f
8:04am 1.6ft 3s 18 22 mph 1003.1mb 50f 40f
7:04am 1.3ft 3s 22 29 mph 1002.3mb 50f 40f
6:04am 1.3ft 2s 20 25 mph 1001.7mb 50f 40f
5:04am 1ft 2s 20 25 mph 1001.4mb 50f 40f
4:04am 1ft 2s 18 22 mph 1001.2mb 51f 39f
3:04am 1.6ft 8s 18 22 mph 1001.2mb 51f 39f
2:04am 0.7ft  -  16 22 mph 1001.1mb 51f 39f
1:04am 2ft 8s 13 18 mph 1000.7mb 50f 39f
12:04am 2ft 11s 11 11 mph 1001mb 50f 41f
Thu 11/16 11:04pm 2.5ft 8s 13 16 mph 1001.5mb 49f 41f
10:04pm 2.5ft 8s 18 20 mph 1001.7mb 49f 42f
9:04pm 2.5ft 6s 16 18 mph 1002.6mb 50f 42f
8:04pm 1.6ft 5s 18 20 mph 1003.9mb 50f 42f
7:04pm 2.5ft 5s 11 16 mph 1004.9mb 50f 43f
6:04pm 2.5ft 6s 4 7 mph 1005.9mb 50f 44f
5:04pm 2ft 4s 4 11 mph 1006.9mb 50f 45f
4:04pm 2ft 4s 11 13 mph 1007.6mb 50f 47f
3:04pm 1.6ft 4s 11 13 mph 1008.6mb 50f 47f
2:04pm 1.6ft 4s 11 13 mph 1008.1mb 50f 47f
1:04pm 1.6ft 4s 11 13 mph 1010mb 50f 47f
12:04pm 1.3ft 4s 11 16 mph 1011.6mb 50f 47f
11:04am 1ft 3s 13 16 mph 1012.8mb 50f 46f
10:04am 1ft 3s 11 16 mph 1013.7mb 50f 46f
9:04am 1.3ft 6s 9 11 mph 1014.1mb 50f 45f
8:04am 0.7ft  -  11 13 mph 1015.4mb 50f 44f
7:04am 0.7ft  -  9 11 mph 1016.2mb 49f 44f
6:04am 1.3ft 8s 9 11 mph 1016.8mb 49f 43f
5:04am 1.3ft 11s 4 7 mph 1017.3mb 49f 40f
3:04am 1.3ft 11s 2 4 mph 1019mb 50f 39f
2:04am 1.3ft 11s 2 4 mph 1019.7mb 50f 39f
1:04am 1.3ft 11s 2 4 mph 1019.7mb 50f 39f
12:04am 1.3ft 11s 7 9 mph 1020.4mb 50f 38f
Wed 11/15 11:04pm 1.3ft 11s 2 2 mph 1020.9mb 50f 40f
10:04pm 1ft 11s 4 7 mph 1021.7mb 49f 39f
9:04pm 1.3ft 11s 2 4 mph 1021.6mb 49f 39f
8:04pm 1.3ft 11s 4 7 mph 1022.4mb 49f 39f
7:04pm 1.3ft 11s 4 7 mph 1023.1mb 49f 39f
6:04pm 1.3ft 8s 2 4 mph 1023.4mb 49f 39f
5:04pm 1.3ft 11s 2 4 mph 1023.1mb 49f 38f
4:04pm 1.3ft 11s 4 7 mph 1023.3mb 51f 38f
2:04pm 1.6ft 11s 9 13 mph 1023.7mb 51f 37f
1:04pm 1.6ft 11s 9 16 mph 1024mb 52f 36f
12:04pm 1.6ft 11s 11 16 mph 1025.1mb 52f 35f
11:04am 1ft 5s 13 18 mph 1025.7mb 52f 35f
10:04am 1ft 2s 13 18 mph 1026.1mb 51f 35f
9:04am 1ft 3s 13 18 mph 1026.4mb 51f 36f
8:04am 1.6ft 3s 16 20 mph 1026.5mb 51f 37f
7:04am 1.3ft 3s 16 20 mph 1026.5mb 51f 37f
6:04am 1.3ft 3s 13 18 mph 1026.4mb 50f 37f
5:04am 1.3ft 3s 13 18 mph 1026.1mb 50f 37f
4:04am 1.3ft 3s 13 20 mph 1025.7mb 50f 37f
3:04am 1ft 3s 13 16 mph 1025.9mb 50f 37f
2:04am 2ft 8s 13 16 mph 1026.1mb 50f 37f
1:04am 2ft 8s 13 18 mph 1025.9mb 51f 38f
12:04am 2.5ft 8s 16 20 mph 1026.1mb 51f 38f
Tue 11/14 11:04pm 2.5ft 8s 16 18 mph 1026.2mb 52f 38f
10:04pm 1.3ft 2s 16 18 mph 1026mb 51f 39f
9:04pm 1.6ft 8s 16 20 mph 1026mb 51f 39f
8:04pm 1.6ft 3s 16 20 mph 1026mb 51f 40f
7:04pm 1.6ft 3s 16 20 mph 1025.8mb 51f 40f
6:04pm 2ft 3s 18 22 mph 1025.9mb 51f 40f
5:04pm 1.6ft 3s 16 22 mph 1025.8mb 51f 41f
4:04pm 2.5ft 6s 16 22 mph 1025.5mb 51f 41f
3:04pm 2ft 8s 16 20 mph 1025.4mb 51f 41f
2:04pm 2.5ft 3s 16 20 mph 1025.4mb 51f 41f
1:04pm 2.5ft 3s 20 22 mph 1025.7mb 51f 41f
12:04pm 2.5ft 3s 20 25 mph 1025.7mb 52f 40f
11:04am 2ft 3s 18 22 mph 1026.5mb 52f 40f
10:04am 2ft 3s 20 22 mph 1027mb 52f 40f
9:04am 2ft 4s 20 25 mph 1026.3mb 52f 40f
8:04am  -   -  20 25 mph 1026.4mb - 40f
7:04am 2ft 3s 20 25 mph 1026mb 52f 39f
6:04am 2ft 4s 20 22 mph 1025.4mb 51f 39f
4:04am 1.6ft 3s 18 22 mph 1025.6mb 51f 39f
3:04am 1.6ft 3s 20 22 mph 1025.6mb 51f 39f
2:04am 1.3ft 3s 16 20 mph 1025.9mb 51f 39f
1:04am 1ft 3s 16 20 mph 1025.8mb 51f 39f
12:04am 0.7ft  -  13 16 mph 1026.2mb 51f 39f
Mon 11/13 11:04pm 0.3ft  -  11 13 mph 1026mb 52f 39f
10:04pm 0.7ft  -  11 13 mph 1026.4mb 52f 38f
9:04pm 1ft 2s 16 18 mph 1027.2mb 51f 37f
8:04pm 1ft 2s 16 18 mph 1027.1mb 51f 38f